createdAt,value
2023-02-25T00:04:52.755Z,33.92
2023-02-25T00:09:59.921Z,33.72
2023-02-25T00:15:07.225Z,33.88
2023-02-25T00:20:14.402Z,34.05
2023-02-25T00:25:21.573Z,33.90
2023-02-25T00:30:28.796Z,33.56
2023-02-25T00:35:35.951Z,33.62
2023-02-25T00:40:43.145Z,33.50
2023-02-25T00:45:50.327Z,33.62
2023-02-25T00:50:57.504Z,33.58
2023-02-25T00:56:04.668Z,33.69
2023-02-25T01:01:11.893Z,33.60
2023-02-25T01:06:19.468Z,33.81
2023-02-25T01:11:26.327Z,33.81
2023-02-25T01:16:33.627Z,33.80
2023-02-25T01:21:40.702Z,33.46
2023-02-25T01:26:47.875Z,33.73
2023-02-25T01:31:55.355Z,33.67
2023-02-25T01:37:02.302Z,33.58
2023-02-25T01:42:09.432Z,33.33
2023-02-25T01:47:16.644Z,33.52
2023-02-25T01:52:23.911Z,33.59
2023-02-25T01:57:31.095Z,33.52
2023-02-25T02:02:38.366Z,33.48
2023-02-25T02:07:45.457Z,33.38
2023-02-25T02:12:52.763Z,33.21
2023-02-25T02:17:59.961Z,33.14
2023-02-25T02:23:07.167Z,34.23
2023-02-25T02:28:14.414Z,34.12
2023-02-25T02:33:21.624Z,34.15
2023-02-25T02:38:28.787Z,34.25
2023-02-25T02:43:35.950Z,34.36
2023-02-25T02:48:43.162Z,34.62
2023-02-25T02:53:50.325Z,34.64
2023-02-25T02:58:57.570Z,34.42
2023-02-25T03:04:04.945Z,34.37
2023-02-25T03:09:11.923Z,34.36
2023-02-25T03:14:19.181Z,34.81
2023-02-25T03:19:26.360Z,34.97
2023-02-25T03:24:33.548Z,34.78
2023-02-25T03:29:40.732Z,34.95
2023-02-25T03:34:47.942Z,35.10
2023-02-25T03:39:55.142Z,35.39
2023-02-25T03:45:02.369Z,35.21
2023-02-25T03:50:09.607Z,35.32
2023-02-25T03:55:16.733Z,35.59
2023-02-25T04:00:23.917Z,35.63
2023-02-25T04:05:31.131Z,35.69
2023-02-25T04:10:38.289Z,35.75
2023-02-25T04:15:45.497Z,35.71
2023-02-25T04:20:52.689Z,35.62
2023-02-25T04:25:59.827Z,35.79
2023-02-25T04:31:07.280Z,35.93
2023-02-25T04:36:14.225Z,35.90
2023-02-25T04:41:21.403Z,35.90
2023-02-25T04:46:28.600Z,36.02
2023-02-25T04:51:35.783Z,36.15
2023-02-25T04:56:42.955Z,36.16
2023-02-25T05:01:50.193Z,36.19
2023-02-25T05:06:57.363Z,36.17
2023-02-25T05:12:04.537Z,36.19
2023-02-25T05:17:11.711Z,36.22
2023-02-25T05:22:18.919Z,36.22
2023-02-25T05:27:26.098Z,36.18
2023-02-25T05:32:33.545Z,36.09
2023-02-25T05:37:40.580Z,36.14
2023-02-25T05:42:47.709Z,36.18
2023-02-25T05:47:54.927Z,36.37
2023-02-25T05:53:02.160Z,36.45
2023-02-25T05:58:09.387Z,36.51
2023-02-25T06:03:16.589Z,36.50
2023-02-25T06:08:23.782Z,36.46
2023-02-25T06:13:30.943Z,36.56
2023-02-25T06:18:38.122Z,36.61
2023-02-25T06:23:45.335Z,36.80
2023-02-25T06:28:52.492Z,36.70
2023-02-25T06:33:59.658Z,36.58
2023-02-25T06:39:06.889Z,36.64
2023-02-25T06:44:15.857Z,36.74
2023-02-25T06:49:21.204Z,37.03
2023-02-25T06:54:28.385Z,37.01
2023-02-25T06:59:35.565Z,37.09
2023-02-25T07:04:44.134Z,37.18
2023-02-25T07:09:49.965Z,37.13
2023-02-25T07:14:57.216Z,37.03
2023-02-25T07:20:04.412Z,36.93
2023-02-25T07:25:11.706Z,36.91
2023-02-25T07:30:18.782Z,36.90
2023-02-25T07:35:26.204Z,36.77
2023-02-25T07:40:33.474Z,36.76
2023-02-25T07:45:40.644Z,36.80
2023-02-25T07:50:47.884Z,37.00
2023-02-25T07:55:55.153Z,36.69
2023-02-25T08:01:02.310Z,36.31
2023-02-25T08:06:09.488Z,36.08
2023-02-25T08:11:16.671Z,35.97
2023-02-25T08:16:23.986Z,35.81
2023-02-25T08:21:31.054Z,35.86
2023-02-25T08:26:38.273Z,36.13
2023-02-25T08:31:45.618Z,36.20
2023-02-25T08:36:52.692Z,36.58
2023-02-25T08:41:59.902Z,36.89
2023-02-25T08:47:07.175Z,37.27
2023-02-25T08:52:14.248Z,37.56
2023-02-25T08:57:21.441Z,37.68
2023-02-25T09:02:28.605Z,37.77
2023-02-25T09:07:36.016Z,37.70
2023-02-25T09:12:43.219Z,37.65
2023-02-25T09:17:50.415Z,37.53
2023-02-25T09:22:57.660Z,37.42
2023-02-25T09:28:04.869Z,37.48
2023-02-25T09:33:12.149Z,37.49
2023-02-25T09:38:19.310Z,37.69
2023-02-25T09:43:26.586Z,37.29
2023-02-25T09:48:33.673Z,36.71
2023-02-25T09:53:40.859Z,36.43
2023-02-25T09:58:48.069Z,36.33
2023-02-25T10:03:55.231Z,36.24
2023-02-25T10:09:02.443Z,36.18
2023-02-25T10:14:09.764Z,36.10
2023-02-25T10:19:16.894Z,36.31
2023-02-25T10:24:24.088Z,35.86
2023-02-25T10:29:31.284Z,35.52
2023-02-25T10:34:38.440Z,35.17
2023-02-25T10:39:45.619Z,34.90
2023-02-25T10:44:52.865Z,34.66
2023-02-25T10:50:00.111Z,34.45
2023-02-25T10:55:07.286Z,34.26
2023-02-25T11:00:14.487Z,34.09
2023-02-25T11:05:21.690Z,33.91
2023-02-25T11:10:28.902Z,33.79
2023-02-25T11:15:46.872Z,33.68
2023-02-25T11:20:43.372Z,33.62
2023-02-25T11:25:50.603Z,33.42
2023-02-25T11:30:57.886Z,33.75
2023-02-25T11:36:04.944Z,33.78
2023-02-25T11:41:12.157Z,33.68
2023-02-25T11:46:19.423Z,33.73
2023-02-25T11:51:26.548Z,33.58
2023-02-25T11:56:33.790Z,33.63
2023-02-25T12:01:40.986Z,33.78
2023-02-25T12:06:48.465Z,33.70
2023-02-25T12:11:55.683Z,32.80
2023-02-25T12:17:02.980Z,32.73
2023-02-25T12:22:10.125Z,32.43
2023-02-25T12:27:17.297Z,32.70
2023-02-25T12:32:24.548Z,32.23
2023-02-25T12:37:31.671Z,32.29
2023-02-25T12:42:38.841Z,32.07
2023-02-25T12:47:46.106Z,31.98
2023-02-25T12:52:53.318Z,31.82
2023-02-25T12:58:00.516Z,30.89
2023-02-25T13:03:07.769Z,31.49
2023-02-25T13:08:14.970Z,31.50
2023-02-25T13:13:22.215Z,31.46
2023-02-25T13:18:29.500Z,31.37
2023-02-25T13:23:36.678Z,31.86
2023-02-25T13:28:44.143Z,31.66
2023-02-25T13:33:51.535Z,30.86
2023-02-25T13:38:58.706Z,30.70
2023-02-25T13:44:05.935Z,30.70
2023-02-25T13:49:13.202Z,31.31
2023-02-25T13:54:20.435Z,31.84
2023-02-25T13:59:27.644Z,31.82
2023-02-25T14:04:35.143Z,31.99
2023-02-25T14:09:42.393Z,31.56
2023-02-25T14:14:49.577Z,31.15
2023-02-25T14:19:57.038Z,31.15
2023-02-25T14:25:05.550Z,31.14
2023-02-25T14:30:12.942Z,31.24
2023-02-25T14:35:20.234Z,31.18
2023-02-25T14:40:27.678Z,31.14
2023-02-25T14:45:35.063Z,31.05
2023-02-25T14:50:42.624Z,31.01
2023-02-25T14:55:49.898Z,30.85
2023-02-25T15:00:57.154Z,30.81
2023-02-25T15:06:04.673Z,30.72
2023-02-25T15:11:12.343Z,30.69
2023-02-25T15:16:19.780Z,30.60
2023-02-25T15:21:26.990Z,30.54
2023-02-25T15:26:34.204Z,30.44
2023-02-25T15:31:41.656Z,30.96
2023-02-25T15:36:49.115Z,30.97
2023-02-25T15:41:56.429Z,30.70
2023-02-25T15:47:03.626Z,30.72
2023-02-25T15:52:10.821Z,30.84
2023-02-25T15:57:18.309Z,30.71
2023-02-25T16:02:25.923Z,30.77
2023-02-25T16:07:33.573Z,30.85
2023-02-25T16:12:42.159Z,30.89
2023-02-25T16:17:48.533Z,31.39
2023-02-25T16:22:56.018Z,31.56
2023-02-25T16:28:03.531Z,31.46
2023-02-25T16:33:11.008Z,31.40
2023-02-25T16:38:18.287Z,31.58
2023-02-25T16:43:25.715Z,31.72
2023-02-25T16:48:33.335Z,31.69
2023-02-25T16:53:40.910Z,32.05
2023-02-25T16:58:48.453Z,32.14
2023-02-25T17:03:56.093Z,32.06
2023-02-25T17:09:03.600Z,31.94
2023-02-25T17:14:10.997Z,32.17
2023-02-25T17:19:18.398Z,32.05
2023-02-25T17:24:25.886Z,30.81
2023-02-25T17:29:33.424Z,30.81
2023-02-25T17:34:41.051Z,30.67
2023-02-25T17:39:48.793Z,30.35
2023-02-25T17:44:56.371Z,30.43
2023-02-25T17:50:03.986Z,30.04
2023-02-25T17:55:11.420Z,30.23
2023-02-25T18:00:18.891Z,30.17
2023-02-25T18:05:26.524Z,29.82
2023-02-25T18:10:34.170Z,29.69
2023-02-25T18:15:42.911Z,29.82
2023-02-25T18:20:50.498Z,29.91
2023-02-25T18:25:58.135Z,29.99
2023-02-25T18:31:05.735Z,29.88
2023-02-25T18:36:13.021Z,29.93
2023-02-25T18:41:20.669Z,29.95
2023-02-25T18:46:28.488Z,29.82
2023-02-25T18:51:35.972Z,29.85
2023-02-25T18:56:43.610Z,29.86
2023-02-25T19:01:51.309Z,29.95
2023-02-25T19:06:58.708Z,29.87
2023-02-25T19:12:06.351Z,29.92
2023-02-25T19:17:13.948Z,30.04
2023-02-25T19:22:21.556Z,30.01
2023-02-25T19:27:29.198Z,29.88
2023-02-25T19:32:36.789Z,30.21
2023-02-25T19:37:44.402Z,29.88
2023-02-25T19:42:52.043Z,29.95
2023-02-25T19:47:59.356Z,29.93
2023-02-25T19:53:06.930Z,30.76
2023-02-25T19:58:14.533Z,30.09
2023-02-25T20:03:22.165Z,30.40
2023-02-25T20:08:29.524Z,30.00
2023-02-25T20:13:37.009Z,29.91
2023-02-25T20:18:44.308Z,29.82
2023-02-25T20:23:51.495Z,29.91
2023-02-25T20:28:59.036Z,29.81
2023-02-25T20:34:06.733Z,29.85
2023-02-25T20:39:14.342Z,29.76
2023-02-25T20:44:22.291Z,29.72
2023-02-25T20:49:29.891Z,29.78
2023-02-25T20:54:37.597Z,29.88
2023-02-25T20:59:45.226Z,30.96
2023-02-25T21:04:52.579Z,30.40
2023-02-25T21:09:59.898Z,30.14
2023-02-25T21:15:07.471Z,29.83
2023-02-25T21:20:15.659Z,29.69
2023-02-25T21:25:23.083Z,29.64
2023-02-25T21:30:30.850Z,29.36
2023-02-25T21:35:38.409Z,29.21
2023-02-25T21:40:46.023Z,28.98
2023-02-25T21:45:53.437Z,28.89
2023-02-25T21:51:00.568Z,29.62
2023-02-25T21:56:08.043Z,29.19
2023-02-25T22:01:15.771Z,29.40
2023-02-25T22:06:23.862Z,30.57
2023-02-25T22:11:30.785Z,30.35
2023-02-25T22:16:38.503Z,30.24
2023-02-25T22:21:45.719Z,30.09
2023-02-25T22:26:52.931Z,30.16
2023-02-25T22:32:00.421Z,29.96
2023-02-25T22:37:07.358Z,30.01
2023-02-25T22:42:14.604Z,30.08
2023-02-25T22:47:21.812Z,29.60
2023-02-25T22:52:28.974Z,29.40
2023-02-25T22:57:36.144Z,29.69
2023-02-25T23:02:43.390Z,29.07
2023-02-25T23:07:50.515Z,29.32
2023-02-25T23:12:57.682Z,29.42
2023-02-25T23:18:04.925Z,28.91
2023-02-25T23:23:12.066Z,28.15
2023-02-25T23:28:19.261Z,27.54
2023-02-25T23:33:26.458Z,27.20
2023-02-25T23:38:33.623Z,27.26
2023-02-25T23:43:40.820Z,26.87
2023-02-25T23:48:48.020Z,26.33
2023-02-25T23:53:55.200Z,28.10
2023-02-25T23:59:02.354Z,26.16
